sensor_id;sensor_type;location;lat;lon;timestamp;temperature;humidity
56374;DHT22;58212;47.034;7.376;2023-03-05T00:00:27;2.80;99.90
56374;DHT22;58212;47.034;7.376;2023-03-05T00:02:54;2.70;99.90
56374;DHT22;58212;47.034;7.376;2023-03-05T00:05:23;2.60;99.90
56374;DHT22;58212;47.034;7.376;2023-03-05T00:07:50;2.50;99.90
56374;DHT22;58212;47.034;7.376;2023-03-05T00:10:43;2.70;99.90
56374;DHT22;58212;47.034;7.376;2023-03-05T00:13:10;2.70;99.90
56374;DHT22;58212;47.034;7.376;2023-03-05T00:15:39;2.50;99.90
56374;DHT22;58212;47.034;7.376;2023-03-05T00:18:06;2.30;99.90
56374;DHT22;58212;47.034;7.376;2023-03-05T00:20:35;2.10;99.90
56374;DHT22;58212;47.034;7.376;2023-03-05T00:23:02;2.50;99.90
56374;DHT22;58212;47.034;7.376;2023-03-05T00:25:29;2.70;99.90
56374;DHT22;58212;47.034;7.376;2023-03-05T00:27:56;2.70;99.90
56374;DHT22;58212;47.034;7.376;2023-03-05T00:30:23;2.60;99.90
56374;DHT22;58212;47.034;7.376;2023-03-05T00:32:51;2.60;99.90
56374;DHT22;58212;47.034;7.376;2023-03-05T00:35:18;2.50;99.90
56374;DHT22;58212;47.034;7.376;2023-03-05T00:37:48;2.50;99.90
56374;DHT22;58212;47.034;7.376;2023-03-05T00:40:18;2.40;99.90
56374;DHT22;58212;47.034;7.376;2023-03-05T00:42:45;2.60;99.90
56374;DHT22;58212;47.034;7.376;2023-03-05T00:45:14;2.50;99.90
56374;DHT22;58212;47.034;7.376;2023-03-05T00:47:41;2.50;99.90
56374;DHT22;58212;47.034;7.376;2023-03-05T00:50:09;2.40;99.90
56374;DHT22;58212;47.034;7.376;2023-03-05T00:52:36;2.30;99.90
56374;DHT22;58212;47.034;7.376;2023-03-05T00:55:07;2.30;99.90
56374;DHT22;58212;47.034;7.376;2023-03-05T00:57:34;2.40;99.90
56374;DHT22;58212;47.034;7.376;2023-03-05T01:00:08;2.40;99.90
56374;DHT22;58212;47.034;7.376;2023-03-05T01:02:36;2.40;99.90
56374;DHT22;58212;47.034;7.376;2023-03-05T01:05:28;2.30;99.90
56374;DHT22;58212;47.034;7.376;2023-03-05T01:07:55;2.20;99.90
56374;DHT22;58212;47.034;7.376;2023-03-05T01:10:28;2.10;99.90
56374;DHT22;58212;47.034;7.376;2023-03-05T01:12:56;2.20;99.90
56374;DHT22;58212;47.034;7.376;2023-03-05T01:15:23;2.40;99.90
56374;DHT22;58212;47.034;7.376;2023-03-05T01:17:50;2.50;99.90
56374;DHT22;58212;47.034;7.376;2023-03-05T01:20:20;2.50;99.90
56374;DHT22;58212;47.034;7.376;2023-03-05T01:22:48;1.90;99.90
56374;DHT22;58212;47.034;7.376;2023-03-05T01:25:16;2.00;99.90
56374;DHT22;58212;47.034;7.376;2023-03-05T01:27:44;2.00;99.90
56374;DHT22;58212;47.034;7.376;2023-03-05T01:30:13;1.80;99.90
56374;DHT22;58212;47.034;7.376;2023-03-05T01:32:40;2.00;99.90
56374;DHT22;58212;47.034;7.376;2023-03-05T01:35:09;2.20;99.90
56374;DHT22;58212;47.034;7.376;2023-03-05T01:37:36;2.30;99.90
56374;DHT22;58212;47.034;7.376;2023-03-05T01:40:04;2.30;99.90
56374;DHT22;58212;47.034;7.376;2023-03-05T01:42:32;2.20;99.90
56374;DHT22;58212;47.034;7.376;2023-03-05T01:45:04;2.00;99.90
56374;DHT22;58212;47.034;7.376;2023-03-05T01:47:32;2.00;99.90
56374;DHT22;58212;47.034;7.376;2023-03-05T01:49:59;1.90;99.90
56374;DHT22;58212;47.034;7.376;2023-03-05T01:52:32;1.90;99.90
56374;DHT22;58212;47.034;7.376;2023-03-05T01:55:05;1.80;99.90
56374;DHT22;58212;47.034;7.376;2023-03-05T01:57:36;1.90;99.90
56374;DHT22;58212;47.034;7.376;2023-03-05T02:00:10;2.10;99.90
56374;DHT22;58212;47.034;7.376;2023-03-05T02:02:40;1.80;99.90
56374;DHT22;58212;47.034;7.376;2023-03-05T02:05:10;2.00;99.90
56374;DHT22;58212;47.034;7.376;2023-03-05T02:07:38;1.90;99.90
56374;DHT22;58212;47.034;7.376;2023-03-05T02:10:15;1.90;99.90
56374;DHT22;58212;47.034;7.376;2023-03-05T02:12:42;2.00;99.90
56374;DHT22;58212;47.034;7.376;2023-03-05T02:15:11;1.90;99.90
56374;DHT22;58212;47.034;7.376;2023-03-05T02:17:42;1.80;99.90
56374;DHT22;58212;47.034;7.376;2023-03-05T02:20:12;1.70;99.90
56374;DHT22;58212;47.034;7.376;2023-03-05T02:22:41;1.80;99.90
56374;DHT22;58212;47.034;7.376;2023-03-05T02:25:16;1.70;99.90
56374;DHT22;58212;47.034;7.376;2023-03-05T02:27:50;1.60;99.90
56374;DHT22;58212;47.034;7.376;2023-03-05T02:30:19;1.60;99.90
56374;DHT22;58212;47.034;7.376;2023-03-05T02:32:47;1.50;99.90
56374;DHT22;58212;47.034;7.376;2023-03-05T02:35:15;1.40;99.90
56374;DHT22;58212;47.034;7.376;2023-03-05T02:37:44;1.50;99.90
56374;DHT22;58212;47.034;7.376;2023-03-05T02:40:12;1.70;99.90
56374;DHT22;58212;47.034;7.376;2023-03-05T02:42:41;1.50;99.90
56374;DHT22;58212;47.034;7.376;2023-03-05T02:45:10;1.50;99.90
56374;DHT22;58212;47.034;7.376;2023-03-05T02:47:38;1.60;99.90
56374;DHT22;58212;47.034;7.376;2023-03-05T02:50:07;1.80;99.90
56374;DHT22;58212;47.034;7.376;2023-03-05T02:52:36;1.80;99.90
56374;DHT22;58212;47.034;7.376;2023-03-05T02:55:08;1.70;99.90
56374;DHT22;58212;47.034;7.376;2023-03-05T02:57:37;1.70;99.90
56374;DHT22;58212;47.034;7.376;2023-03-05T03:00:05;1.70;99.90
56374;DHT22;58212;47.034;7.376;2023-03-05T03:02:33;1.70;99.90
56374;DHT22;58212;47.034;7.376;2023-03-05T03:05:00;1.80;99.90
56374;DHT22;58212;47.034;7.376;2023-03-05T03:07:27;1.90;99.90
56374;DHT22;58212;47.034;7.376;2023-03-05T03:09:54;1.70;99.90
56374;DHT22;58212;47.034;7.376;2023-03-05T03:12:25;1.80;99.90
56374;DHT22;58212;47.034;7.376;2023-03-05T03:14:52;1.80;99.90
56374;DHT22;58212;47.034;7.376;2023-03-05T03:17:21;1.70;99.90
56374;DHT22;58212;47.034;7.376;2023-03-05T03:19:48;1.60;99.90
56374;DHT22;58212;47.034;7.376;2023-03-05T03:22:15;1.70;99.90
56374;DHT22;58212;47.034;7.376;2023-03-05T03:24:43;1.80;99.90
56374;DHT22;58212;47.034;7.376;2023-03-05T03:27:13;1.90;99.90
56374;DHT22;58212;47.034;7.376;2023-03-05T03:29:41;1.50;99.90
56374;DHT22;58212;47.034;7.376;2023-03-05T03:32:35;1.70;99.90
56374;DHT22;58212;47.034;7.376;2023-03-05T03:35:04;1.70;99.90
56374;DHT22;58212;47.034;7.376;2023-03-05T03:37:30;1.60;99.90
56374;DHT22;58212;47.034;7.376;2023-03-05T03:39:57;1.60;99.90
56374;DHT22;58212;47.034;7.376;2023-03-05T03:42:24;1.70;99.90
56374;DHT22;58212;47.034;7.376;2023-03-05T03:44:53;1.70;99.90
56374;DHT22;58212;47.034;7.376;2023-03-05T03:47:20;1.70;99.90
56374;DHT22;58212;47.034;7.376;2023-03-05T03:49:46;1.70;99.90
56374;DHT22;58212;47.034;7.376;2023-03-05T03:52:14;1.70;99.90
56374;DHT22;58212;47.034;7.376;2023-03-05T03:54:41;1.70;99.90
56374;DHT22;58212;47.034;7.376;2023-03-05T03:57:08;1.60;99.90
56374;DHT22;58212;47.034;7.376;2023-03-05T03:59:35;1.60;99.90
56374;DHT22;58212;47.034;7.376;2023-03-05T04:02:03;1.60;99.90
56374;DHT22;58212;47.034;7.376;2023-03-05T04:04:30;1.60;99.90
56374;DHT22;58212;47.034;7.376;2023-03-05T04:06:57;1.40;99.90
56374;DHT22;58212;47.034;7.376;2023-03-05T04:09:24;1.40;99.90
56374;DHT22;58212;47.034;7.376;2023-03-05T04:11:51;1.40;99.90
56374;DHT22;58212;47.034;7.376;2023-03-05T04:14:18;1.50;99.90
56374;DHT22;58212;47.034;7.376;2023-03-05T04:16:45;1.50;99.90
56374;DHT22;58212;47.034;7.376;2023-03-05T04:19:13;1.30;99.90
56374;DHT22;58212;47.034;7.376;2023-03-05T04:21:40;1.30;99.90
56374;DHT22;58212;47.034;7.376;2023-03-05T04:24:07;1.30;99.90
56374;DHT22;58212;47.034;7.376;2023-03-05T04:26:35;1.40;99.90
56374;DHT22;58212;47.034;7.376;2023-03-05T04:29:02;1.30;99.90
56374;DHT22;58212;47.034;7.376;2023-03-05T04:31:29;1.30;99.90
56374;DHT22;58212;47.034;7.376;2023-03-05T04:33:56;1.20;99.90
56374;DHT22;58212;47.034;7.376;2023-03-05T04:36:24;1.10;99.90
56374;DHT22;58212;47.034;7.376;2023-03-05T04:38:51;1.00;99.90
56374;DHT22;58212;47.034;7.376;2023-03-05T04:41:18;1.10;99.90
56374;DHT22;58212;47.034;7.376;2023-03-05T04:43:45;1.20;99.90
56374;DHT22;58212;47.034;7.376;2023-03-05T04:46:12;1.30;99.90
56374;DHT22;58212;47.034;7.376;2023-03-05T04:48:39;1.30;99.90
56374;DHT22;58212;47.034;7.376;2023-03-05T04:51:07;1.20;99.90
56374;DHT22;58212;47.034;7.376;2023-03-05T04:53:35;1.20;99.90
56374;DHT22;58212;47.034;7.376;2023-03-05T04:56:03;1.20;99.90
56374;DHT22;58212;47.034;7.376;2023-03-05T04:58:30;1.30;99.90
56374;DHT22;58212;47.034;7.376;2023-03-05T05:01:00;1.40;99.90
56374;DHT22;58212;47.034;7.376;2023-03-05T05:03:27;1.50;99.90
56374;DHT22;58212;47.034;7.376;2023-03-05T05:05:57;1.50;99.90
56374;DHT22;58212;47.034;7.376;2023-03-05T05:08:25;1.50;99.90
56374;DHT22;58212;47.034;7.376;2023-03-05T05:10:59;1.50;99.90
56374;DHT22;58212;47.034;7.376;2023-03-05T05:13:27;1.50;99.90
56374;DHT22;58212;47.034;7.376;2023-03-05T05:15:55;1.30;99.90
56374;DHT22;58212;47.034;7.376;2023-03-05T05:18:23;1.10;99.90
56374;DHT22;58212;47.034;7.376;2023-03-05T05:20:51;1.10;99.90
56374;DHT22;58212;47.034;7.376;2023-03-05T05:23:18;1.30;99.90
56374;DHT22;58212;47.034;7.376;2023-03-05T05:25:45;1.20;99.90
56374;DHT22;58212;47.034;7.376;2023-03-05T05:28:38;1.30;99.90
56374;DHT22;58212;47.034;7.376;2023-03-05T05:31:07;1.50;99.90
56374;DHT22;58212;47.034;7.376;2023-03-05T05:33:35;1.60;99.90
56374;DHT22;58212;47.034;7.376;2023-03-05T05:36:03;1.70;99.90
56374;DHT22;58212;47.034;7.376;2023-03-05T05:38:32;1.70;99.90
56374;DHT22;58212;47.034;7.376;2023-03-05T05:41:03;1.60;99.90
56374;DHT22;58212;47.034;7.376;2023-03-05T05:43:30;1.50;99.90
56374;DHT22;58212;47.034;7.376;2023-03-05T05:46:03;1.50;99.90
56374;DHT22;58212;47.034;7.376;2023-03-05T05:48:32;1.60;99.90
56374;DHT22;58212;47.034;7.376;2023-03-05T05:51:04;1.60;99.90
56374;DHT22;58212;47.034;7.376;2023-03-05T05:53:31;1.70;99.90
56374;DHT22;58212;47.034;7.376;2023-03-05T05:55:58;1.60;99.90
56374;DHT22;58212;47.034;7.376;2023-03-05T05:58:25;1.70;99.90
56374;DHT22;58212;47.034;7.376;2023-03-05T06:00:52;1.70;99.90
56374;DHT22;58212;47.034;7.376;2023-03-05T06:03:21;1.60;99.90
56374;DHT22;58212;47.034;7.376;2023-03-05T06:06:15;1.80;99.90
56374;DHT22;58212;47.034;7.376;2023-03-05T06:08:42;1.80;99.90
56374;DHT22;58212;47.034;7.376;2023-03-05T06:11:10;1.70;99.90
56374;DHT22;58212;47.034;7.376;2023-03-05T06:13:37;1.60;99.90
56374;DHT22;58212;47.034;7.376;2023-03-05T06:16:07;1.50;99.90
56374;DHT22;58212;47.034;7.376;2023-03-05T06:18:35;1.50;99.90
56374;DHT22;58212;47.034;7.376;2023-03-05T06:21:05;1.60;99.90
56374;DHT22;58212;47.034;7.376;2023-03-05T06:23:33;1.60;99.90
56374;DHT22;58212;47.034;7.376;2023-03-05T06:26:02;1.50;99.90
56374;DHT22;58212;47.034;7.376;2023-03-05T06:28:29;1.70;99.90
56374;DHT22;58212;47.034;7.376;2023-03-05T06:31:01;1.70;99.90
56374;DHT22;58212;47.034;7.376;2023-03-05T06:33:29;1.70;99.90
56374;DHT22;58212;47.034;7.376;2023-03-05T06:35:58;1.70;99.90
56374;DHT22;58212;47.034;7.376;2023-03-05T06:38:25;1.80;99.90
56374;DHT22;58212;47.034;7.376;2023-03-05T06:40:52;1.90;99.90
56374;DHT22;58212;47.034;7.376;2023-03-05T06:43:20;1.90;99.90
56374;DHT22;58212;47.034;7.376;2023-03-05T06:45:47;2.00;99.90
56374;DHT22;58212;47.034;7.376;2023-03-05T06:48:13;2.10;99.90
56374;DHT22;58212;47.034;7.376;2023-03-05T06:50:40;2.20;99.90
56374;DHT22;58212;47.034;7.376;2023-03-05T06:53:09;2.10;99.90
56374;DHT22;58212;47.034;7.376;2023-03-05T06:55:36;2.10;99.90
56374;DHT22;58212;47.034;7.376;2023-03-05T06:58:08;2.10;99.90
56374;DHT22;58212;47.034;7.376;2023-03-05T07:00:35;2.20;99.90
56374;DHT22;58212;47.034;7.376;2023-03-05T07:03:02;2.30;99.90
56374;DHT22;58212;47.034;7.376;2023-03-05T07:05:31;2.30;99.90
56374;DHT22;58212;47.034;7.376;2023-03-05T07:07:58;2.30;99.90
56374;DHT22;58212;47.034;7.376;2023-03-05T07:10:26;2.40;99.90
56374;DHT22;58212;47.034;7.376;2023-03-05T07:12:53;2.20;99.90
56374;DHT22;58212;47.034;7.376;2023-03-05T07:15:21;2.40;99.90
56374;DHT22;58212;47.034;7.376;2023-03-05T07:17:48;2.60;99.90
56374;DHT22;58212;47.034;7.376;2023-03-05T07:20:16;2.80;99.90
56374;DHT22;58212;47.034;7.376;2023-03-05T07:22:44;3.00;99.90
56374;DHT22;58212;47.034;7.376;2023-03-05T07:25:11;2.80;99.90
56374;DHT22;58212;47.034;7.376;2023-03-05T07:27:39;2.80;99.90
56374;DHT22;58212;47.034;7.376;2023-03-05T07:30:07;2.60;99.90
56374;DHT22;58212;47.034;7.376;2023-03-05T07:32:35;2.80;99.90
56374;DHT22;58212;47.034;7.376;2023-03-05T07:35:02;2.60;99.90
56374;DHT22;58212;47.034;7.376;2023-03-05T07:37:30;2.40;99.90
56374;DHT22;58212;47.034;7.376;2023-03-05T07:39:57;2.70;99.90
56374;DHT22;58212;47.034;7.376;2023-03-05T07:42:24;2.80;99.90
56374;DHT22;58212;47.034;7.376;2023-03-05T07:45:09;2.70;99.90
56374;DHT22;58212;47.034;7.376;2023-03-05T07:47:36;3.10;99.90
56374;DHT22;58212;47.034;7.376;2023-03-05T07:50:04;3.10;99.90
56374;DHT22;58212;47.034;7.376;2023-03-05T07:52:31;2.90;99.90
56374;DHT22;58212;47.034;7.376;2023-03-05T07:54:58;2.90;99.90
56374;DHT22;58212;47.034;7.376;2023-03-05T07:57:25;2.90;99.90
56374;DHT22;58212;47.034;7.376;2023-03-05T07:59:52;2.80;99.90
56374;DHT22;58212;47.034;7.376;2023-03-05T08:02:22;2.30;99.90
56374;DHT22;58212;47.034;7.376;2023-03-05T08:04:49;2.50;99.90
56374;DHT22;58212;47.034;7.376;2023-03-05T08:07:17;2.70;99.90
56374;DHT22;58212;47.034;7.376;2023-03-05T08:09:45;2.90;99.90
56374;DHT22;58212;47.034;7.376;2023-03-05T08:12:12;2.70;99.90
56374;DHT22;58212;47.034;7.376;2023-03-05T08:14:39;2.90;99.90
56374;DHT22;58212;47.034;7.376;2023-03-05T08:17:06;2.90;99.90
56374;DHT22;58212;47.034;7.376;2023-03-05T08:19:34;3.20;99.90
56374;DHT22;58212;47.034;7.376;2023-03-05T08:22:02;3.30;99.90
56374;DHT22;58212;47.034;7.376;2023-03-05T08:24:29;3.00;99.90
56374;DHT22;58212;47.034;7.376;2023-03-05T08:26:56;3.00;99.90
56374;DHT22;58212;47.034;7.376;2023-03-05T08:29:24;3.20;99.90
56374;DHT22;58212;47.034;7.376;2023-03-05T08:31:52;3.00;99.90
56374;DHT22;58212;47.034;7.376;2023-03-05T08:34:20;3.00;99.90
56374;DHT22;58212;47.034;7.376;2023-03-05T08:36:50;2.80;99.90
56374;DHT22;58212;47.034;7.376;2023-03-05T08:39:17;2.80;99.90
56374;DHT22;58212;47.034;7.376;2023-03-05T08:41:44;3.10;99.90
56374;DHT22;58212;47.034;7.376;2023-03-05T08:44:11;3.10;99.90
56374;DHT22;58212;47.034;7.376;2023-03-05T08:46:39;3.40;99.90
56374;DHT22;58212;47.034;7.376;2023-03-05T08:49:06;3.40;99.90
56374;DHT22;58212;47.034;7.376;2023-03-05T08:51:33;3.50;99.90
56374;DHT22;58212;47.034;7.376;2023-03-05T08:54:02;3.10;99.90
56374;DHT22;58212;47.034;7.376;2023-03-05T08:56:57;3.00;99.90
56374;DHT22;58212;47.034;7.376;2023-03-05T08:59:24;3.40;99.90
56374;DHT22;58212;47.034;7.376;2023-03-05T09:01:51;3.50;99.90
56374;DHT22;58212;47.034;7.376;2023-03-05T09:04:18;3.50;99.90
56374;DHT22;58212;47.034;7.376;2023-03-05T09:06:45;3.30;99.90
56374;DHT22;58212;47.034;7.376;2023-03-05T09:09:13;2.90;99.90
56374;DHT22;58212;47.034;7.376;2023-03-05T09:11:42;3.40;99.90
56374;DHT22;58212;47.034;7.376;2023-03-05T09:14:09;3.60;99.90
56374;DHT22;58212;47.034;7.376;2023-03-05T09:16:37;3.30;99.90
56374;DHT22;58212;47.034;7.376;2023-03-05T09:19:09;3.30;99.90
56374;DHT22;58212;47.034;7.376;2023-03-05T09:21:37;3.80;99.90
56374;DHT22;58212;47.034;7.376;2023-03-05T09:24:05;3.70;99.90
56374;DHT22;58212;47.034;7.376;2023-03-05T09:26:34;3.80;99.90
56374;DHT22;58212;47.034;7.376;2023-03-05T09:29:00;4.00;99.90
56374;DHT22;58212;47.034;7.376;2023-03-05T09:31:28;4.30;99.90
56374;DHT22;58212;47.034;7.376;2023-03-05T09:33:55;4.30;99.90
56374;DHT22;58212;47.034;7.376;2023-03-05T09:36:24;4.20;99.90
56374;DHT22;58212;47.034;7.376;2023-03-05T09:38:51;4.10;99.90
56374;DHT22;58212;47.034;7.376;2023-03-05T09:41:27;4.40;99.90
56374;DHT22;58212;47.034;7.376;2023-03-05T09:44:05;4.00;99.90
56374;DHT22;58212;47.034;7.376;2023-03-05T09:46:47;3.50;99.90
56374;DHT22;58212;47.034;7.376;2023-03-05T09:49:18;4.00;99.90
56374;DHT22;58212;47.034;7.376;2023-03-05T09:51:51;4.60;99.90
56374;DHT22;58212;47.034;7.376;2023-03-05T09:54:24;4.80;99.90
56374;DHT22;58212;47.034;7.376;2023-03-05T09:56:55;4.80;99.90
56374;DHT22;58212;47.034;7.376;2023-03-05T09:59:30;4.40;99.90
56374;DHT22;58212;47.034;7.376;2023-03-05T10:02:08;4.50;99.90
56374;DHT22;58212;47.034;7.376;2023-03-05T10:04:41;4.30;99.90
56374;DHT22;58212;47.034;7.376;2023-03-05T10:07:15;4.70;99.90
56374;DHT22;58212;47.034;7.376;2023-03-05T10:09:45;4.70;99.90
56374;DHT22;58212;47.034;7.376;2023-03-05T10:12:19;4.50;99.90
56374;DHT22;58212;47.034;7.376;2023-03-05T10:14:51;4.60;99.90
56374;DHT22;58212;47.034;7.376;2023-03-05T10:20:40;5.10;99.90
56374;DHT22;58212;47.034;7.376;2023-03-05T10:23:22;4.70;99.90
56374;DHT22;58212;47.034;7.376;2023-03-05T10:26:00;4.90;99.90
56374;DHT22;58212;47.034;7.376;2023-03-05T10:28:34;5.40;99.90
56374;DHT22;58212;47.034;7.376;2023-03-05T10:31:19;5.50;99.90
56374;DHT22;58212;47.034;7.376;2023-03-05T10:33:59;5.40;99.90
56374;DHT22;58212;47.034;7.376;2023-03-05T10:36:45;5.30;99.90
56374;DHT22;58212;47.034;7.376;2023-03-05T10:39:41;4.90;99.90
56374;DHT22;58212;47.034;7.376;2023-03-05T10:42:20;5.60;99.90
56374;DHT22;58212;47.034;7.376;2023-03-05T10:44:52;5.80;99.90
56374;DHT22;58212;47.034;7.376;2023-03-05T10:47:50;6.00;99.90
56374;DHT22;58212;47.034;7.376;2023-03-05T10:50:21;6.00;99.90
56374;DHT22;58212;47.034;7.376;2023-03-05T10:52:59;5.80;99.90
56374;DHT22;58212;47.034;7.376;2023-03-05T10:55:32;5.90;99.90
56374;DHT22;58212;47.034;7.376;2023-03-05T10:58:00;5.50;99.90
56374;DHT22;58212;47.034;7.376;2023-03-05T11:00:28;5.50;99.90
56374;DHT22;58212;47.034;7.376;2023-03-05T11:03:03;5.70;99.90
56374;DHT22;58212;47.034;7.376;2023-03-05T11:05:43;5.70;99.90
56374;DHT22;58212;47.034;7.376;2023-03-05T11:08:26;5.60;99.90
56374;DHT22;58212;47.034;7.376;2023-03-05T11:11:10;6.00;99.90
56374;DHT22;58212;47.034;7.376;2023-03-05T11:13:50;5.60;99.90
56374;DHT22;58212;47.034;7.376;2023-03-05T11:16:21;5.60;99.90
56374;DHT22;58212;47.034;7.376;2023-03-05T11:19:14;5.60;99.90
56374;DHT22;58212;47.034;7.376;2023-03-05T11:21:43;5.50;99.90
56374;DHT22;58212;47.034;7.376;2023-03-05T11:24:12;5.60;99.90
56374;DHT22;58212;47.034;7.376;2023-03-05T11:26:47;5.60;99.90
56374;DHT22;58212;47.034;7.376;2023-03-05T11:29:18;5.70;99.90
56374;DHT22;58212;47.034;7.376;2023-03-05T11:31:46;5.40;99.90
56374;DHT22;58212;47.034;7.376;2023-03-05T11:34:40;5.80;99.90
56374;DHT22;58212;47.034;7.376;2023-03-05T11:37:21;5.90;99.90
56374;DHT22;58212;47.034;7.376;2023-03-05T11:40:10;6.40;99.90
56374;DHT22;58212;47.034;7.376;2023-03-05T11:42:40;6.80;99.90
56374;DHT22;58212;47.034;7.376;2023-03-05T11:45:14;6.90;99.90
56374;DHT22;58212;47.034;7.376;2023-03-05T11:47:44;6.60;99.90
56374;DHT22;58212;47.034;7.376;2023-03-05T11:50:40;6.40;99.90
56374;DHT22;58212;47.034;7.376;2023-03-05T11:53:14;6.30;99.90
56374;DHT22;58212;47.034;7.376;2023-03-05T11:55:48;6.20;99.90
56374;DHT22;58212;47.034;7.376;2023-03-05T11:58:26;6.30;99.90
56374;DHT22;58212;47.034;7.376;2023-03-05T12:00:55;6.30;99.90
56374;DHT22;58212;47.034;7.376;2023-03-05T12:03:24;6.50;99.90
56374;DHT22;58212;47.034;7.376;2023-03-05T12:06:07;7.10;99.90
56374;DHT22;58212;47.034;7.376;2023-03-05T12:08:39;6.90;99.90
56374;DHT22;58212;47.034;7.376;2023-03-05T12:11:14;6.80;99.90
56374;DHT22;58212;47.034;7.376;2023-03-05T12:13:43;6.40;99.90
56374;DHT22;58212;47.034;7.376;2023-03-05T12:16:18;6.80;99.90
56374;DHT22;58212;47.034;7.376;2023-03-05T12:18:59;7.00;99.90
56374;DHT22;58212;47.034;7.376;2023-03-05T12:21:33;7.50;99.90
56374;DHT22;58212;47.034;7.376;2023-03-05T12:24:34;7.70;99.90
56374;DHT22;58212;47.034;7.376;2023-03-05T12:27:10;7.30;99.90
56374;DHT22;58212;47.034;7.376;2023-03-05T12:29:45;7.50;99.90
56374;DHT22;58212;47.034;7.376;2023-03-05T12:35:51;8.00;99.90
56374;DHT22;58212;47.034;7.376;2023-03-05T12:38:30;7.90;99.90
56374;DHT22;58212;47.034;7.376;2023-03-05T12:44:18;7.80;99.90
56374;DHT22;58212;47.034;7.376;2023-03-05T12:47:16;8.20;99.90
56374;DHT22;58212;47.034;7.376;2023-03-05T12:49:48;7.80;99.90
56374;DHT22;58212;47.034;7.376;2023-03-05T12:52:25;7.50;99.90
56374;DHT22;58212;47.034;7.376;2023-03-05T12:55:15;7.90;99.90
56374;DHT22;58212;47.034;7.376;2023-03-05T12:57:46;8.40;99.90
56374;DHT22;58212;47.034;7.376;2023-03-05T13:00:17;8.70;99.90
56374;DHT22;58212;47.034;7.376;2023-03-05T13:02:50;8.80;99.90
56374;DHT22;58212;47.034;7.376;2023-03-05T13:05:23;8.90;99.90
56374;DHT22;58212;47.034;7.376;2023-03-05T13:07:52;8.90;99.90
56374;DHT22;58212;47.034;7.376;2023-03-05T13:10:23;8.40;99.90
56374;DHT22;58212;47.034;7.376;2023-03-05T13:12:52;7.80;99.90
56374;DHT22;58212;47.034;7.376;2023-03-05T13:15:21;7.50;99.90
56374;DHT22;58212;47.034;7.376;2023-03-05T13:17:56;7.80;99.90
56374;DHT22;58212;47.034;7.376;2023-03-05T13:20:33;8.20;99.90
56374;DHT22;58212;47.034;7.376;2023-03-05T13:23:16;8.30;99.90
56374;DHT22;58212;47.034;7.376;2023-03-05T13:26:00;8.70;99.90
56374;DHT22;58212;47.034;7.376;2023-03-05T13:28:27;8.90;99.90
56374;DHT22;58212;47.034;7.376;2023-03-05T13:30:57;8.70;99.90
56374;DHT22;58212;47.034;7.376;2023-03-05T13:33:27;8.50;99.90
56374;DHT22;58212;47.034;7.376;2023-03-05T13:35:56;8.90;99.90
56374;DHT22;58212;47.034;7.376;2023-03-05T13:38:27;9.00;99.90
56374;DHT22;58212;47.034;7.376;2023-03-05T13:41:05;9.00;99.90
56374;DHT22;58212;47.034;7.376;2023-03-05T13:43:33;8.90;99.90
56374;DHT22;58212;47.034;7.376;2023-03-05T13:46:00;8.80;99.90
56374;DHT22;58212;47.034;7.376;2023-03-05T13:48:29;8.50;99.90
56374;DHT22;58212;47.034;7.376;2023-03-05T13:50:56;8.10;99.90
56374;DHT22;58212;47.034;7.376;2023-03-05T13:53:48;7.70;99.90
56374;DHT22;58212;47.034;7.376;2023-03-05T13:56:17;8.50;99.90
56374;DHT22;58212;47.034;7.376;2023-03-05T13:58:49;8.70;99.90
56374;DHT22;58212;47.034;7.376;2023-03-05T14:01:25;8.40;99.90
56374;DHT22;58212;47.034;7.376;2023-03-05T14:04:21;8.30;99.90
56374;DHT22;58212;47.034;7.376;2023-03-05T14:06:52;8.10;99.90
56374;DHT22;58212;47.034;7.376;2023-03-05T14:09:23;8.40;99.90
56374;DHT22;58212;47.034;7.376;2023-03-05T14:12:00;8.00;99.90
56374;DHT22;58212;47.034;7.376;2023-03-05T14:14:30;8.30;99.90
56374;DHT22;58212;47.034;7.376;2023-03-05T14:17:35;8.80;99.90
56374;DHT22;58212;47.034;7.376;2023-03-05T14:20:18;8.70;99.90
56374;DHT22;58212;47.034;7.376;2023-03-05T14:22:48;8.70;99.90
56374;DHT22;58212;47.034;7.376;2023-03-05T14:25:27;8.90;99.90
56374;DHT22;58212;47.034;7.376;2023-03-05T14:27:56;8.70;99.90
56374;DHT22;58212;47.034;7.376;2023-03-05T14:30:24;8.80;99.90
56374;DHT22;58212;47.034;7.376;2023-03-05T14:32:54;8.70;99.90
56374;DHT22;58212;47.034;7.376;2023-03-05T14:35:26;8.30;99.90
56374;DHT22;58212;47.034;7.376;2023-03-05T14:37:56;8.00;99.90
56374;DHT22;58212;47.034;7.376;2023-03-05T14:40:27;8.10;99.90
56374;DHT22;58212;47.034;7.376;2023-03-05T14:42:56;8.00;99.90
56374;DHT22;58212;47.034;7.376;2023-03-05T14:45:25;8.10;99.90
56374;DHT22;58212;47.034;7.376;2023-03-05T14:47:53;8.10;99.90
56374;DHT22;58212;47.034;7.376;2023-03-05T14:50:49;8.20;99.90
56374;DHT22;58212;47.034;7.376;2023-03-05T14:53:21;7.90;99.90
56374;DHT22;58212;47.034;7.376;2023-03-05T14:55:51;7.80;99.90
56374;DHT22;58212;47.034;7.376;2023-03-05T14:58:22;8.10;99.90
56374;DHT22;58212;47.034;7.376;2023-03-05T15:00:51;8.10;99.90
56374;DHT22;58212;47.034;7.376;2023-03-05T15:03:20;8.10;99.90
56374;DHT22;58212;47.034;7.376;2023-03-05T15:05:50;8.30;99.90
56374;DHT22;58212;47.034;7.376;2023-03-05T15:08:21;8.30;99.90
56374;DHT22;58212;47.034;7.376;2023-03-05T15:11:15;8.40;99.90
56374;DHT22;58212;47.034;7.376;2023-03-05T15:13:42;8.30;99.90
56374;DHT22;58212;47.034;7.376;2023-03-05T15:16:13;8.00;99.90
56374;DHT22;58212;47.034;7.376;2023-03-05T15:18:41;8.00;99.90
56374;DHT22;58212;47.034;7.376;2023-03-05T15:21:09;8.00;99.90
56374;DHT22;58212;47.034;7.376;2023-03-05T15:23:37;8.00;99.90
56374;DHT22;58212;47.034;7.376;2023-03-05T15:26:05;7.90;99.90
56374;DHT22;58212;47.034;7.376;2023-03-05T15:28:33;7.80;99.90
56374;DHT22;58212;47.034;7.376;2023-03-05T15:31:01;7.90;99.90
56374;DHT22;58212;47.034;7.376;2023-03-05T15:33:31;8.00;99.90
56374;DHT22;58212;47.034;7.376;2023-03-05T15:35:58;7.80;99.90
56374;DHT22;58212;47.034;7.376;2023-03-05T15:38:26;7.90;99.90
56374;DHT22;58212;47.034;7.376;2023-03-05T15:40:53;7.80;99.90
56374;DHT22;58212;47.034;7.376;2023-03-05T15:43:20;7.80;99.90
56374;DHT22;58212;47.034;7.376;2023-03-05T15:45:47;7.90;99.90
56374;DHT22;58212;47.034;7.376;2023-03-05T15:48:14;7.90;99.90
56374;DHT22;58212;47.034;7.376;2023-03-05T15:50:42;7.70;99.90
56374;DHT22;58212;47.034;7.376;2023-03-05T15:53:12;7.70;99.90
56374;DHT22;58212;47.034;7.376;2023-03-05T15:55:43;7.80;99.90
56374;DHT22;58212;47.034;7.376;2023-03-05T15:58:13;7.70;99.90
56374;DHT22;58212;47.034;7.376;2023-03-05T16:00:41;7.50;99.90
56374;DHT22;58212;47.034;7.376;2023-03-05T16:03:09;7.50;99.90
56374;DHT22;58212;47.034;7.376;2023-03-05T16:05:39;7.60;99.90
56374;DHT22;58212;47.034;7.376;2023-03-05T16:08:06;7.40;99.90
56374;DHT22;58212;47.034;7.376;2023-03-05T16:10:38;7.40;99.90
56374;DHT22;58212;47.034;7.376;2023-03-05T16:13:11;7.40;99.90
56374;DHT22;58212;47.034;7.376;2023-03-05T16:15:39;7.40;99.90
56374;DHT22;58212;47.034;7.376;2023-03-05T16:18:09;7.20;99.90